createdAt,value
2018-02-20T00:02:09.922Z,24.75
2018-02-20T00:04:37.422Z,24.15
2018-02-20T00:07:04.932Z,24.50
2018-02-20T00:09:32.459Z,21.92
2018-02-20T00:12:00.727Z,25.00
2018-02-20T00:14:28.987Z,26.27
2018-02-20T00:16:56.480Z,26.23
2018-02-20T00:19:23.987Z,25.12
2018-02-20T00:21:51.478Z,24.75
2018-02-20T00:24:19.746Z,23.62
2018-02-20T00:26:47.274Z,25.17
2018-02-20T00:29:14.806Z,23.92
2018-02-20T00:31:42.303Z,25.08
2018-02-20T00:34:09.811Z,27.83
2018-02-20T00:36:37.319Z,24.73
2018-02-20T00:39:04.827Z,28.33
2018-02-20T00:41:32.319Z,28.33
2018-02-20T00:43:59.808Z,26.77
2018-02-20T00:46:27.303Z,26.75
2018-02-20T00:48:54.807Z,28.30
2018-02-20T00:51:22.307Z,25.85
2018-02-20T00:53:50.567Z,26.27
2018-02-20T00:56:18.839Z,25.45
2018-02-20T00:58:46.386Z,25.55
2018-02-20T01:01:13.879Z,23.00
2018-02-20T01:03:42.139Z,23.67
2018-02-20T01:06:10.400Z,24.23
2018-02-20T01:08:37.898Z,24.23
2018-02-20T01:11:05.407Z,24.52
2018-02-20T01:13:32.919Z,25.98
2018-02-20T01:16:00.432Z,25.75
2018-02-20T01:18:27.923Z,28.00
2018-02-20T01:20:56.203Z,26.35
2018-02-20T01:23:23.704Z,26.08
2018-02-20T01:25:51.196Z,27.20
2018-02-20T01:28:19.458Z,25.80
2018-02-20T01:30:46.971Z,26.10
2018-02-20T01:33:14.476Z,26.02
2018-02-20T01:35:41.963Z,27.58
2018-02-20T01:38:10.220Z,25.90
2018-02-20T01:40:38.503Z,26.30
2018-02-20T01:43:06.778Z,27.50
2018-02-20T01:45:35.039Z,23.98
2018-02-20T01:48:02.537Z,26.27
2018-02-20T01:50:30.082Z,26.12
2018-02-20T01:52:58.354Z,27.58
2018-02-20T01:55:26.618Z,28.33
2018-02-20T01:57:54.135Z,28.77
2018-02-20T02:00:21.655Z,26.42
2018-02-20T02:02:49.915Z,29.20
2018-02-20T02:05:17.407Z,27.65
2018-02-20T02:07:44.912Z,28.40
2018-02-20T02:10:12.432Z,28.42
2018-02-20T02:12:39.923Z,26.70
2018-02-20T02:15:07.415Z,27.85
2018-02-20T02:17:35.679Z,29.42
2018-02-20T02:20:03.251Z,29.70
2018-02-20T02:22:31.527Z,28.80
2018-02-20T02:24:59.782Z,32.08
2018-02-20T02:27:27.291Z,32.20
2018-02-20T02:29:54.788Z,33.50
2018-02-20T02:32:22.300Z,34.03
2018-02-20T02:34:49.791Z,31.87
2018-02-20T02:37:17.287Z,33.63
2018-02-20T02:39:45.560Z,33.72
2018-02-20T02:42:13.053Z,34.03
2018-02-20T02:44:40.555Z,32.28
2018-02-20T02:47:08.056Z,33.15
2018-02-20T02:49:35.551Z,31.98
2018-02-20T02:52:03.056Z,34.00
2018-02-20T02:54:31.332Z,32.67
2018-02-20T02:56:59.647Z,32.08
2018-02-20T02:59:27.161Z,35.05
2018-02-20T03:01:54.670Z,33.38
2018-02-20T03:04:22.172Z,33.15
2018-02-20T03:06:51.175Z,34.45
2018-02-20T03:09:19.435Z,34.28
2018-02-20T03:11:46.936Z,36.90
2018-02-20T03:14:14.446Z,35.22
2018-02-20T03:16:41.947Z,39.58
2018-02-20T03:19:09.448Z,38.90
2018-02-20T03:21:36.951Z,35.90
2018-02-20T03:24:05.223Z,36.60
2018-02-20T03:26:33.478Z,35.70
2018-02-20T03:29:00.990Z,35.28
2018-02-20T03:31:28.490Z,35.78
2018-02-20T03:33:56.003Z,34.80
2018-02-20T03:36:23.494Z,36.60
2018-02-20T03:38:50.992Z,38.40
2018-02-20T03:41:19.279Z,37.30
2018-02-20T03:43:47.555Z,38.28
2018-02-20T03:46:15.812Z,37.03
2018-02-20T03:48:43.312Z,36.72
2018-02-20T03:51:10.818Z,37.38
2018-02-20T03:53:39.110Z,40.67
2018-02-20T03:56:07.369Z,40.90
2018-02-20T03:58:34.872Z,37.55
2018-02-20T04:01:02.368Z,35.13
2018-02-20T04:03:29.858Z,36.92
2018-02-20T04:05:58.121Z,38.55
2018-02-20T04:08:25.626Z,39.30
2018-02-20T04:10:53.141Z,38.35
2018-02-20T04:13:20.643Z,39.10
2018-02-20T04:15:48.141Z,38.30
2018-02-20T04:18:15.647Z,38.88
2018-02-20T04:20:43.159Z,39.60
2018-02-20T04:23:10.658Z,38.45
2018-02-20T04:25:38.922Z,39.55
2018-02-20T04:28:07.181Z,39.42
2018-02-20T04:30:34.707Z,38.83
2018-02-20T04:33:02.215Z,37.42
2018-02-20T04:35:30.530Z,34.42
2018-02-20T04:37:58.762Z,36.35
2018-02-20T04:40:27.024Z,36.97
2018-02-20T04:42:56.035Z,34.97
2018-02-20T04:45:24.299Z,34.05
2018-02-20T04:47:53.308Z,32.30
2018-02-20T04:50:21.563Z,35.55
2018-02-20T04:52:49.058Z,31.95
2018-02-20T04:55:16.547Z,33.38
2018-02-20T04:57:44.040Z,31.50
2018-02-20T05:00:11.531Z,32.63
2018-02-20T05:02:39.035Z,34.63
2018-02-20T05:05:06.547Z,37.20
2018-02-20T05:07:34.044Z,35.50
2018-02-20T05:10:01.548Z,34.63
2018-02-20T05:12:29.807Z,35.50
2018-02-20T05:14:57.303Z,35.47
2018-02-20T05:17:24.847Z,38.25
2018-02-20T05:19:53.108Z,42.72
2018-02-20T05:22:21.375Z,37.65
2018-02-20T05:24:50.568Z,37.13
2018-02-20T05:27:18.080Z,38.95
2018-02-20T05:29:45.575Z,36.72
2018-02-20T05:32:13.083Z,36.45
2018-02-20T05:34:40.590Z,35.30
2018-02-20T05:37:08.083Z,35.92
2018-02-20T05:39:36.343Z,34.67
2018-02-20T05:42:05.363Z,34.70
2018-02-20T05:44:33.627Z,34.05
2018-02-20T05:47:01.907Z,34.28
2018-02-20T05:49:30.175Z,35.20
2018-02-20T05:51:58.439Z,35.72
2018-02-20T05:54:25.948Z,32.10
2018-02-20T05:56:53.444Z,33.17
2018-02-20T05:59:21.210Z,35.85
2018-02-20T06:01:48.833Z,32.53
2018-02-20T06:04:16.328Z,35.15
2018-02-20T06:06:43.861Z,33.95
2018-02-20T06:09:11.355Z,33.95
2018-02-20T06:11:38.970Z,33.75
2018-02-20T06:14:06.487Z,32.60
2018-02-20T06:16:34.003Z,33.30
2018-02-20T06:19:01.511Z,33.47
2018-02-20T06:21:29.767Z,35.80
2018-02-20T06:23:57.259Z,35.88
2018-02-20T06:26:25.525Z,33.75
2018-02-20T06:28:53.796Z,34.70
2018-02-20T06:31:22.058Z,34.20
2018-02-20T06:33:49.575Z,32.40
2018-02-20T06:36:17.083Z,34.40
2018-02-20T06:38:44.594Z,34.05
2018-02-20T06:41:12.111Z,31.75
2018-02-20T06:43:40.371Z,32.88
2018-02-20T06:46:08.640Z,34.55
2018-02-20T06:48:36.154Z,32.85
2018-02-20T06:51:03.647Z,30.10
2018-02-20T06:53:31.143Z,29.20
2018-02-20T06:55:59.414Z,29.70
2018-02-20T06:58:27.700Z,28.20
2018-02-20T07:00:55.956Z,29.80
2018-02-20T07:03:24.214Z,28.00
2018-02-20T07:05:52.109Z,27.42
2018-02-20T07:08:20.123Z,27.92
2018-02-20T07:10:47.639Z,28.70
2018-02-20T07:13:15.203Z,29.25
2018-02-20T07:15:42.723Z,30.42
2018-02-20T07:18:10.228Z,31.27
2018-02-20T07:20:37.725Z,33.28
2018-02-20T07:23:05.212Z,37.08
2018-02-20T07:25:32.717Z,39.90
2018-02-20T07:28:00.215Z,38.53
2018-02-20T07:30:27.716Z,38.63
2018-02-20T07:32:55.216Z,38.05
2018-02-20T07:35:22.724Z,38.83
2018-02-20T07:37:50.979Z,42.17
2018-02-20T07:40:18.470Z,39.75
2018-02-20T07:42:45.982Z,41.30
2018-02-20T07:45:13.481Z,42.22
2018-02-20T07:47:41.752Z,42.83
2018-02-20T07:50:10.025Z,42.97
2018-02-20T07:52:38.299Z,43.72
2018-02-20T07:55:06.590Z,42.75
2018-02-20T07:57:34.144Z,45.55
2018-02-20T08:00:02.441Z,43.30
2018-02-20T08:02:29.935Z,45.05
2018-02-20T08:04:57.564Z,44.67
2018-02-20T08:07:25.051Z,46.05
2018-02-20T08:09:52.546Z,45.12
2018-02-20T08:12:20.811Z,48.03
2018-02-20T08:14:49.169Z,47.22
2018-02-20T08:17:16.679Z,46.28
2018-02-20T08:19:44.184Z,46.40
2018-02-20T08:22:11.683Z,43.35
2018-02-20T08:24:39.954Z,43.20
2018-02-20T08:27:08.233Z,43.92
2018-02-20T08:29:36.511Z,43.65
2018-02-20T08:32:04.779Z,45.17
2018-02-20T08:34:33.035Z,43.50
2018-02-20T08:37:00.556Z,43.42
2018-02-20T08:39:28.062Z,44.70
2018-02-20T08:41:55.643Z,44.15
2018-02-20T08:44:23.902Z,43.65
2018-02-20T08:46:51.396Z,44.72
2018-02-20T08:49:18.896Z,43.63
2018-02-20T08:51:46.398Z,42.72
2018-02-20T08:54:13.903Z,44.95
2018-02-20T08:56:41.406Z,43.13
2018-02-20T08:59:09.667Z,43.75
2018-02-20T09:01:37.178Z,45.15
2018-02-20T09:04:04.692Z,43.40
2018-02-20T09:06:32.955Z,45.15
2018-02-20T09:09:00.570Z,45.08
2018-02-20T09:11:28.067Z,48.35
2018-02-20T09:13:55.567Z,45.70
2018-02-20T09:16:23.082Z,43.28
2018-02-20T09:18:50.579Z,43.95
2018-02-20T09:21:18.106Z,41.08
2018-02-20T09:23:45.620Z,42.80
2018-02-20T09:26:13.136Z,44.42
2018-02-20T09:28:41.411Z,42.78
2018-02-20T09:31:09.675Z,42.38
2018-02-20T09:33:37.171Z,41.30
2018-02-20T09:36:04.675Z,39.65
2018-02-20T09:38:32.166Z,41.63
2018-02-20T09:41:00.427Z,42.45
2018-02-20T09:43:28.698Z,42.15
2018-02-20T09:45:56.312Z,43.60
2018-02-20T09:48:23.819Z,41.42
2018-02-20T09:50:51.319Z,43.50
2018-02-20T09:53:18.820Z,42.28
2018-02-20T09:55:46.318Z,39.80
2018-02-20T09:58:14.600Z,41.28
2018-02-20T10:00:42.867Z,41.88
2018-02-20T10:03:11.143Z,41.78
2018-02-20T10:05:39.406Z,41.58
2018-02-20T10:08:06.907Z,42.55
2018-02-20T10:10:34.416Z,41.58
2018-02-20T10:13:02.679Z,41.50
2018-02-20T10:15:30.179Z,42.17
2018-02-20T10:17:58.446Z,42.75
2018-02-20T10:20:26.707Z,40.92
2018-02-20T10:22:54.209Z,40.55
2018-02-20T10:25:21.715Z,41.95
2018-02-20T10:27:49.207Z,40.45
2018-02-20T10:30:17.503Z,42.60
2018-02-20T10:32:45.003Z,41.97
2018-02-20T10:35:12.520Z,43.80
2018-02-20T10:37:40.807Z,42.70
2018-02-20T10:40:08.300Z,42.58
2018-02-20T10:42:35.794Z,42.08
2018-02-20T10:45:04.051Z,40.15
2018-02-20T10:47:32.326Z,41.83
2018-02-20T10:50:00.601Z,42.65
2018-02-20T10:52:28.167Z,39.40
2018-02-20T10:54:56.426Z,43.05
2018-02-20T10:57:24.688Z,41.28
2018-02-20T10:59:52.187Z,42.47
2018-02-20T11:02:20.447Z,43.10
2018-02-20T11:04:48.720Z,42.47
2018-02-20T11:07:16.219Z,43.50
2018-02-20T11:09:43.724Z,44.40
2018-02-20T11:12:11.238Z,42.78
2018-02-20T11:14:38.743Z,43.53
2018-02-20T11:17:06.256Z,43.30
2018-02-20T11:19:33.750Z,47.25
2018-02-20T11:22:01.246Z,44.55
2018-02-20T11:24:29.515Z,44.22
2018-02-20T11:26:57.790Z,42.08
2018-02-20T11:29:26.059Z,41.08
2018-02-20T11:31:54.323Z,46.13
2018-02-20T11:34:21.837Z,44.92
2018-02-20T11:36:49.351Z,40.85
2018-02-20T11:39:16.860Z,46.15
2018-02-20T11:41:44.371Z,46.10
2018-02-20T11:44:12.646Z,41.83
2018-02-20T11:46:40.140Z,44.92
2018-02-20T11:49:07.657Z,43.83
2018-02-20T11:51:35.932Z,44.42
2018-02-20T11:54:03.540Z,43.53
2018-02-20T11:56:31.083Z,45.95
2018-02-20T11:58:58.584Z,45.83
2018-02-20T12:01:26.088Z,46.88
2018-02-20T12:03:54.351Z,45.25
2018-02-20T12:06:21.849Z,44.72
2018-02-20T12:08:49.359Z,42.72
2018-02-20T12:11:16.868Z,43.15
2018-02-20T12:13:44.363Z,40.65
2018-02-20T12:16:12.100Z,42.15
2018-02-20T12:18:39.777Z,42.10
2018-02-20T12:21:07.350Z,40.90
2018-02-20T12:23:34.839Z,36.70
2018-02-20T12:26:03.106Z,37.58
2018-02-20T12:28:31.378Z,38.70
2018-02-20T12:30:58.877Z,36.40
2018-02-20T12:33:26.375Z,36.47
2018-02-20T12:35:53.870Z,32.10
2018-02-20T12:38:22.133Z,29.65
2018-02-20T12:40:50.395Z,30.92
2018-02-20T12:43:17.905Z,30.40
2018-02-20T12:45:45.418Z,29.65
2018-02-20T12:48:12.907Z,28.90
2018-02-20T12:50:40.414Z,27.42
2018-02-20T12:53:07.933Z,29.87
2018-02-20T12:55:35.452Z,29.12
2018-02-20T12:58:02.944Z,30.83
2018-02-20T13:00:30.435Z,30.95
2018-02-20T13:02:57.927Z,28.20
2018-02-20T13:05:25.425Z,30.02
2018-02-20T13:07:52.932Z,30.08
2018-02-20T13:10:20.442Z,31.42
2018-02-20T13:12:47.959Z,33.50
2018-02-20T13:15:15.464Z,33.63
2018-02-20T13:17:42.951Z,30.67
2018-02-20T13:20:10.467Z,32.70
2018-02-20T13:22:37.978Z,30.88
2018-02-20T13:25:05.475Z,33.22
2018-02-20T13:27:33.734Z,32.75
2018-02-20T13:30:01.995Z,34.90
2018-02-20T13:32:29.496Z,34.63
2018-02-20T13:34:57.035Z,35.05
2018-02-20T13:37:25.291Z,36.20
2018-02-20T13:39:52.791Z,36.60
2018-02-20T13:42:20.315Z,39.20
2018-02-20T13:44:47.815Z,41.75
2018-02-20T13:47:15.341Z,39.17
2018-02-20T13:49:43.632Z,36.30
2018-02-20T13:52:11.900Z,38.03
2018-02-20T14:01:26.903Z,38.42
2018-02-20T14:03:54.403Z,37.63
2018-02-20T14:06:21.919Z,37.15
2018-02-20T14:08:50.187Z,36.03
2018-02-20T14:11:17.695Z,35.78
2018-02-20T14:13:45.199Z,33.22
2018-02-20T14:16:12.691Z,33.58
2018-02-20T14:18:40.270Z,34.35
2018-02-20T14:21:07.795Z,33.80
2018-02-20T14:23:36.103Z,33.28
2018-02-20T14:26:03.618Z,33.90
2018-02-20T14:28:31.122Z,35.55
2018-02-20T14:30:58.619Z,33.33
2018-02-20T14:33:26.136Z,34.10
2018-02-20T14:35:53.631Z,33.90
2018-02-20T14:38:21.140Z,33.50
2018-02-20T14:40:48.646Z,34.53
2018-02-20T14:43:16.159Z,30.40
2018-02-20T14:45:43.672Z,32.33
2018-02-20T14:48:11.163Z,30.05
2018-02-20T14:50:39.431Z,32.05
2018-02-20T14:53:07.703Z,30.40
2018-02-20T14:55:35.989Z,29.83
2018-02-20T14:58:04.247Z,30.88
2018-02-20T15:00:31.739Z,32.00
2018-02-20T15:02:59.263Z,31.35
2018-02-20T15:05:26.795Z,33.83
2018-02-20T15:07:54.293Z,33.20
2018-02-20T15:10:22.547Z,32.17
2018-02-20T15:12:50.815Z,29.75
2018-02-20T15:15:18.339Z,28.02
2018-02-20T15:17:45.834Z,29.73
2018-02-20T15:20:13.343Z,27.52
2018-02-20T15:22:40.851Z,27.27
2018-02-20T15:25:08.347Z,28.20
2018-02-20T15:27:36.607Z,28.67
2018-02-20T15:30:04.888Z,27.37
2018-02-20T15:32:33.151Z,30.40
2018-02-20T15:35:00.666Z,29.73
2018-02-20T15:37:28.215Z,28.48
2018-02-20T15:39:55.761Z,30.83
2018-02-20T15:42:23.236Z,30.92
2018-02-20T15:44:50.747Z,29.25
2018-02-20T15:47:18.247Z,33.20
2018-02-20T15:49:45.757Z,30.17
2018-02-20T15:52:13.279Z,30.17
2018-02-20T15:54:40.826Z,32.45
2018-02-20T15:57:08.331Z,31.27
2018-02-20T15:59:35.839Z,33.95
2018-02-20T16:02:03.347Z,31.02
2018-02-20T16:04:30.836Z,31.10
2018-02-20T16:06:59.103Z,30.90
2018-02-20T16:09:27.363Z,31.60
2018-02-20T16:11:54.859Z,31.10
2018-02-20T16:14:23.297Z,33.85
2018-02-20T16:16:51.275Z,32.60
2018-02-20T16:19:18.775Z,34.38
2018-02-20T16:21:46.285Z,32.47
2018-02-20T16:24:13.790Z,34.63
2018-02-20T16:26:41.295Z,35.33
2018-02-20T16:29:08.803Z,36.55
2018-02-20T16:31:36.307Z,37.03
2018-02-20T16:34:03.808Z,40.67
2018-02-20T16:36:31.308Z,40.67
2018-02-20T16:38:59.000Z,38.88
2018-02-20T16:41:27.278Z,39.08
2018-02-20T16:43:54.796Z,38.15
2018-02-20T16:46:22.339Z,38.35
2018-02-20T16:48:49.860Z,37.35
2018-02-20T16:51:18.155Z,38.50
2018-02-20T16:53:46.480Z,37.05
2018-02-20T16:56:13.994Z,38.28
2018-02-20T16:58:41.503Z,40.08
2018-02-20T17:01:09.012Z,38.90
2018-02-20T17:03:36.528Z,38.65
2018-02-20T17:06:04.803Z,36.20
2018-02-20T17:08:32.299Z,36.67
2018-02-20T17:11:00.613Z,37.00
2018-02-20T17:13:28.107Z,34.45
2018-02-20T17:15:55.609Z,38.58
2018-02-20T17:18:23.120Z,37.25
2018-02-20T17:20:51.442Z,37.72
2018-02-20T17:23:19.131Z,36.30
2018-02-20T17:25:46.629Z,35.55
2018-02-20T17:28:14.887Z,38.55
2018-02-20T17:30:42.387Z,37.15
2018-02-20T17:33:09.936Z,37.08
2018-02-20T17:35:38.199Z,38.60
2018-02-20T17:38:05.697Z,39.60
2018-02-20T17:40:33.258Z,35.65
2018-02-20T17:43:00.751Z,39.53
2018-02-20T17:45:28.248Z,38.22
2018-02-20T17:47:56.499Z,38.60
2018-02-20T17:50:23.991Z,38.08
2018-02-20T17:52:51.519Z,37.20
2018-02-20T17:55:19.023Z,36.47
2018-02-20T17:57:46.529Z,39.55
2018-02-20T18:00:14.024Z,39.88
2018-02-20T18:02:41.533Z,37.50
2018-02-20T18:05:09.077Z,34.53
2018-02-20T18:07:36.563Z,36.78
2018-02-20T18:10:04.076Z,39.15
2018-02-20T18:12:31.579Z,40.65
2018-02-20T18:14:59.075Z,40.03
2018-02-20T18:17:26.587Z,41.60
2018-02-20T18:19:54.079Z,39.95
2018-02-20T18:22:22.346Z,40.08
2018-02-20T18:24:50.624Z,39.30
2018-02-20T18:27:18.892Z,38.70
2018-02-20T18:29:46.395Z,38.13
2018-02-20T18:32:13.893Z,39.40
2018-02-20T18:34:41.414Z,37.42
2018-02-20T18:37:09.768Z,40.88
2018-02-20T18:39:38.026Z,36.58
2018-02-20T18:42:06.308Z,39.05
2018-02-20T18:44:34.580Z,43.30
2018-02-20T18:47:02.844Z,42.00
2018-02-20T18:49:30.454Z,38.03
2018-02-20T18:51:57.972Z,38.83
2018-02-20T18:54:25.478Z,37.10
2018-02-20T18:56:52.982Z,38.58
2018-02-20T18:59:20.495Z,40.00
2018-02-20T19:01:48.035Z,39.13
2018-02-20T19:04:15.567Z,36.70
2018-02-20T19:06:43.859Z,39.05
2018-02-20T19:09:11.380Z,38.88
2018-02-20T19:11:38.899Z,40.42
2018-02-20T19:14:06.396Z,50.80
2018-02-20T19:16:33.903Z,41.80
2018-02-20T19:19:01.403Z,38.30
2018-02-20T19:21:28.911Z,38.70
2018-02-20T19:23:57.179Z,40.88
2018-02-20T19:26:25.463Z,46.75
2018-02-20T19:28:54.007Z,43.45
2018-02-20T19:31:21.500Z,42.95
2018-02-20T19:33:49.760Z,43.42
2018-02-20T19:36:17.279Z,46.20
2018-02-20T19:38:44.859Z,41.40
2018-02-20T19:41:12.347Z,42.47
2018-02-20T19:43:40.617Z,39.33
2018-02-20T19:46:08.896Z,40.08
2018-02-20T19:48:37.164Z,46.13
2018-02-20T19:51:04.662Z,45.08
2018-02-20T19:53:32.166Z,39.92
2018-02-20T19:55:59.666Z,38.92
2018-02-20T19:58:27.182Z,38.40
2018-02-20T20:00:54.699Z,39.85
2018-02-20T20:03:23.091Z,43.05
2018-02-20T20:05:50.584Z,41.08
2018-02-20T20:08:18.095Z,40.95
2018-02-20T20:10:45.609Z,39.30
2018-02-20T20:13:13.119Z,39.75
2018-02-20T20:15:40.619Z,40.72
2018-02-20T20:18:08.119Z,40.28
2018-02-20T20:20:37.115Z,39.08
2018-02-20T20:23:03.121Z,45.88
2018-02-20T20:25:31.421Z,43.70
2018-02-20T20:27:58.937Z,40.90
2018-02-20T20:30:27.203Z,40.00
2018-02-20T20:32:54.699Z,40.03
2018-02-20T20:35:22.202Z,41.37
2018-02-20T20:37:49.723Z,39.20
2018-02-20T20:40:17.211Z,36.78
2018-02-20T20:42:44.704Z,37.65
2018-02-20T20:45:12.200Z,40.05
2018-02-20T20:47:39.717Z,40.22
2018-02-20T20:50:07.227Z,37.00
2018-02-20T20:52:34.726Z,36.80
2018-02-20T20:55:02.997Z,36.92
2018-02-20T20:57:30.491Z,36.10
2018-02-20T20:59:58.751Z,38.78
2018-02-20T21:02:27.011Z,36.63
2018-02-20T21:04:54.503Z,36.17
2018-02-20T21:07:22.763Z,32.65
2018-02-20T21:09:51.035Z,39.22
2018-02-20T21:12:18.536Z,38.97
2018-02-20T21:14:46.057Z,36.70
2018-02-20T21:17:14.331Z,38.08
2018-02-20T21:19:42.646Z,40.55
2018-02-20T21:22:10.617Z,42.72
2018-02-20T21:24:38.113Z,41.65
2018-02-20T21:27:05.607Z,44.67
2018-02-20T21:29:33.127Z,44.03
2018-02-20T21:32:00.636Z,43.28
2018-02-20T21:34:28.136Z,47.38
2018-02-20T21:36:55.634Z,46.60
2018-02-20T21:39:23.903Z,46.55
2018-02-20T21:41:51.480Z,44.90
2018-02-20T21:44:19.748Z,44.05
2018-02-20T21:46:48.015Z,44.95
2018-02-20T21:49:16.299Z,43.92
2018-02-20T21:51:44.568Z,46.95
2018-02-20T21:54:12.831Z,45.00
2018-02-20T21:56:41.099Z,49.13
2018-02-20T21:59:08.613Z,46.78
2018-02-20T22:01:36.127Z,45.70
2018-02-20T22:04:03.623Z,46.28
2018-02-20T22:06:31.140Z,45.78
2018-02-20T22:08:58.671Z,48.33
2018-02-20T22:11:26.168Z,46.40
2018-02-20T22:13:53.772Z,46.28
2018-02-20T22:16:21.279Z,45.92
2018-02-20T22:18:48.779Z,47.15
2018-02-20T22:21:16.336Z,49.22
2018-02-20T22:23:43.845Z,47.33
2018-02-20T22:26:11.339Z,48.10
2018-02-20T22:28:39.598Z,49.25
2018-02-20T22:31:07.115Z,51.70
2018-02-20T22:33:34.603Z,46.30
2018-02-20T22:36:02.114Z,49.35
2018-02-20T22:38:29.611Z,47.15
2018-02-20T22:40:57.107Z,52.58
2018-02-20T22:43:25.367Z,50.10
2018-02-20T22:45:53.636Z,50.67
2018-02-20T22:48:21.131Z,50.20
2018-02-20T22:50:48.649Z,52.90
2018-02-20T22:53:16.142Z,53.50
2018-02-20T22:55:43.644Z,53.17
2018-02-20T22:58:11.154Z,53.53
2018-02-20T23:00:39.418Z,54.78
2018-02-20T23:03:07.692Z,56.70
2018-02-20T23:05:35.963Z,51.70
2018-02-20T23:08:04.235Z,53.15
2018-02-20T23:10:31.739Z,57.58
2018-02-20T23:12:59.235Z,53.92
2018-02-20T23:15:26.732Z,52.08
2018-02-20T23:17:54.995Z,52.08
2018-02-20T23:20:23.264Z,53.13
2018-02-20T23:22:51.539Z,55.22
2018-02-20T23:25:19.039Z,53.80
2018-02-20T23:27:46.539Z,52.40
2018-02-20T23:30:14.056Z,56.13
2018-02-20T23:32:41.559Z,52.17
2018-02-20T23:35:09.059Z,51.85
2018-02-20T23:37:36.579Z,54.47
2018-02-20T23:40:04.174Z,53.30
2018-02-20T23:42:32.452Z,52.75
2018-02-20T23:44:59.966Z,53.80
2018-02-20T23:47:27.481Z,49.40
2018-02-20T23:49:54.980Z,50.72
2018-02-20T23:52:22.474Z,52.13
2018-02-20T23:54:50.746Z,48.67
2018-02-20T23:57:19.010Z,52.28
2018-02-20T23:59:46.513Z,54.40
